CU-0030 weather

San German Airport
San German, HolguĂ­n, Cuba

Public forecast

Using degrees Celsius for public forecast. Weather courtesy of forecast.io.

METAR (pilot weather report)

Closest report is Frank Pais International Airport, 16.2 nm (30.1 km) NW. Retrieved 2019/05/23 02:50 UTC (34 minutes ago):

MUHG 230250Z 11007KT 9999 FEW020 25/23 Q1017

TAF (pilot weather forecast)

Forecast is more than 12 hours old.

Closest forecast is Frank Pais International Airport, 16.2 nm (30.1 km) NW. Retrieved 2019/05/22 00:03 UTC (1 day ago):

TAF MUHG 222300Z 2300/2324 09010KT 9000 SCT020 TEMPO 2300/2302 VRB10KT 3000 TSRA SCT018CB BKN020 BECMG 2303/2305 VRB03KT BECMG 2315/2317 07012KT